createdAt,value
2022-09-23T00:01:48.059Z,43.90
2022-09-23T00:04:19.668Z,42.70
2022-09-23T00:06:52.125Z,46.30
2022-09-23T00:09:24.503Z,48.90
2022-09-23T00:11:57.352Z,40.00
2022-09-23T00:14:29.366Z,42.80
2022-09-23T00:17:01.016Z,39.70
2022-09-23T00:19:32.661Z,40.30
2022-09-23T00:22:06.808Z,39.90
2022-09-23T00:24:38.421Z,46.40
2022-09-23T00:27:10.920Z,46.20
2022-09-23T00:29:42.547Z,44.30
2022-09-23T00:32:16.178Z,44.80
2022-09-23T00:34:48.012Z,54.90
2022-09-23T00:37:20.759Z,48.10
2022-09-23T00:39:52.345Z,47.70
2022-09-23T00:42:27.696Z,43.80
2022-09-23T00:45:00.671Z,48.50
2022-09-23T00:47:36.540Z,50.10
2022-09-23T00:50:18.013Z,44.90
2022-09-23T00:52:53.879Z,44.80
2022-09-23T00:55:31.913Z,43.90
2022-09-23T00:58:07.723Z,53.10
2022-09-23T01:00:39.330Z,46.50
2022-09-23T01:03:12.890Z,51.30
2022-09-23T01:05:45.115Z,43.50
2022-09-23T01:08:17.718Z,46.60
2022-09-23T01:10:59.373Z,44.80
2022-09-23T01:13:39.815Z,45.70
2022-09-23T01:16:19.753Z,40.30
2022-09-23T01:19:00.130Z,40.60
2022-09-23T01:21:46.042Z,43.80
2022-09-23T01:24:46.630Z,38.40
2022-09-23T01:27:27.580Z,39.40
2022-09-23T01:30:21.953Z,39.20
2022-09-23T01:33:05.695Z,40.10
2022-09-23T01:35:50.700Z,37.80
2022-09-23T01:38:34.571Z,41.10
2022-09-23T01:41:16.171Z,38.30
2022-09-23T01:43:55.672Z,41.10
2022-09-23T01:46:34.189Z,37.00
2022-09-23T01:49:13.018Z,40.10
2022-09-23T01:51:54.695Z,44.10
2022-09-23T01:54:32.187Z,40.40
2022-09-23T01:57:10.325Z,38.00
2022-09-23T01:59:48.032Z,41.80
2022-09-23T02:02:27.814Z,35.60
2022-09-23T02:05:03.891Z,45.80
2022-09-23T02:07:42.067Z,37.60
2022-09-23T02:10:17.797Z,36.50
2022-09-23T02:12:51.518Z,47.20
2022-09-23T02:15:27.557Z,47.10
2022-09-23T02:18:04.954Z,53.40
2022-09-23T02:20:40.682Z,52.80
2022-09-23T02:23:17.285Z,54.50
2022-09-23T02:25:55.541Z,50.70
2022-09-23T02:28:33.876Z,45.70
2022-09-23T02:31:12.170Z,42.40
2022-09-23T02:33:53.592Z,41.70
2022-09-23T02:36:34.725Z,35.10
2022-09-23T02:39:15.319Z,40.20
2022-09-23T02:41:52.329Z,46.10
2022-09-23T02:45:41.639Z,40.70
2022-09-23T02:48:19.482Z,37.10
2022-09-23T02:50:53.991Z,40.50
2022-09-23T02:53:27.551Z,37.10
2022-09-23T02:55:59.168Z,37.00
2022-09-23T02:58:31.549Z,38.10
2022-09-23T03:01:12.805Z,31.20
2022-09-23T03:03:50.573Z,28.60
2022-09-23T03:06:33.080Z,31.50
2022-09-23T03:09:11.646Z,33.10
2022-09-23T03:11:49.443Z,30.40
2022-09-23T03:14:31.073Z,31.10
2022-09-23T03:17:07.329Z,31.20
2022-09-23T03:19:48.450Z,28.00
2022-09-23T03:24:55.482Z,26.80
2022-09-23T03:27:31.331Z,29.70
2022-09-23T03:30:03.975Z,26.30
2022-09-23T03:32:46.068Z,27.80
2022-09-23T03:35:17.976Z,25.70
2022-09-23T03:37:54.318Z,26.40
2022-09-23T03:40:29.711Z,30.30
2022-09-23T03:43:04.346Z,24.70
2022-09-23T03:45:36.655Z,28.90
2022-09-23T03:48:08.367Z,26.40
2022-09-23T03:50:40.163Z,29.70
2022-09-23T03:53:16.007Z,28.60
2022-09-23T03:55:48.276Z,29.80
2022-09-23T03:58:19.832Z,27.40
2022-09-23T04:00:55.138Z,28.40
2022-09-23T04:03:29.068Z,31.30
2022-09-23T04:06:00.921Z,30.00
2022-09-23T04:08:32.647Z,26.00
2022-09-23T04:11:05.415Z,25.10
2022-09-23T04:13:38.608Z,27.90
2022-09-23T04:16:11.732Z,25.00
2022-09-23T04:18:43.353Z,30.20
2022-09-23T04:21:14.911Z,26.50
2022-09-23T04:23:47.904Z,24.90
2022-09-23T04:26:20.213Z,29.70
2022-09-23T04:28:51.970Z,27.50
2022-09-23T04:31:24.229Z,26.10
2022-09-23T04:33:57.062Z,26.80
2022-09-23T04:36:30.405Z,27.10
2022-09-23T04:39:02.873Z,24.60
2022-09-23T04:41:34.776Z,28.80
2022-09-23T04:44:06.475Z,27.60
2022-09-23T04:46:39.297Z,29.00
2022-09-23T04:49:11.288Z,33.80
2022-09-23T04:51:43.764Z,33.10
2022-09-23T04:54:17.068Z,37.00
2022-09-23T04:56:48.601Z,34.00
2022-09-23T04:59:20.333Z,36.20
2022-09-23T05:01:52.715Z,36.50
2022-09-23T05:07:57.076Z,34.00
2022-09-23T05:10:31.187Z,46.30
2022-09-23T05:13:11.593Z,34.80
2022-09-23T05:15:51.245Z,41.00
2022-09-23T05:18:22.888Z,46.00
2022-09-23T05:21:19.663Z,42.10
2022-09-23T05:24:01.517Z,43.60
2022-09-23T05:26:34.682Z,47.20
2022-09-23T05:29:07.060Z,43.00
2022-09-23T05:31:40.397Z,42.00
2022-09-23T05:34:12.256Z,42.80
2022-09-23T05:36:43.848Z,48.60
2022-09-23T05:39:15.584Z,51.70
2022-09-23T05:41:47.676Z,40.60
2022-09-23T05:44:19.284Z,40.80
2022-09-23T05:46:51.013Z,42.60
2022-09-23T05:49:33.211Z,38.40
2022-09-23T05:52:16.549Z,44.80
2022-09-23T05:54:48.107Z,45.40
2022-09-23T05:57:21.210Z,39.80
2022-09-23T05:59:52.973Z,42.20
2022-09-23T06:02:25.442Z,45.30
2022-09-23T06:04:57.079Z,45.00
2022-09-23T06:07:36.348Z,51.90
2022-09-23T06:10:10.849Z,47.80
2022-09-23T06:12:44.630Z,42.00
2022-09-23T06:15:17.035Z,42.20
2022-09-23T06:17:51.609Z,41.50
2022-09-23T06:20:23.239Z,34.70
2022-09-23T06:22:55.665Z,35.80
2022-09-23T06:25:27.265Z,28.20
2022-09-23T06:27:59.409Z,30.30
2022-09-23T06:30:31.101Z,31.20
2022-09-23T06:33:03.050Z,25.90
2022-09-23T06:35:34.801Z,29.20
2022-09-23T06:38:07.642Z,23.80
2022-09-23T06:40:39.262Z,23.50
2022-09-23T06:43:11.930Z,27.00
2022-09-23T06:45:43.839Z,30.00
2022-09-23T06:48:15.471Z,22.50
2022-09-23T06:50:47.159Z,26.60
2022-09-23T06:53:18.971Z,25.50
2022-09-23T06:55:50.757Z,24.70
2022-09-23T06:58:22.670Z,23.10
2022-09-23T07:00:55.255Z,27.80
2022-09-23T07:03:27.628Z,25.60
2022-09-23T07:06:01.777Z,24.20
2022-09-23T07:08:34.819Z,25.40
2022-09-23T07:11:13.364Z,20.70
2022-09-23T07:13:46.791Z,24.50
2022-09-23T07:16:18.484Z,32.70
2022-09-23T07:18:50.464Z,36.50
2022-09-23T07:21:22.220Z,37.20
2022-09-23T07:23:55.355Z,32.50
2022-09-23T07:26:27.589Z,38.80
2022-09-23T07:29:04.947Z,37.40
2022-09-23T07:31:39.985Z,40.90
2022-09-23T07:34:12.884Z,42.40
2022-09-23T07:36:44.593Z,46.50
2022-09-23T07:39:16.196Z,43.00
2022-09-23T07:41:48.269Z,44.30
2022-09-23T07:44:22.779Z,47.60
2022-09-23T07:46:54.407Z,46.80
2022-09-23T07:49:26.063Z,37.60
2022-09-23T07:51:58.004Z,47.70
2022-09-23T07:54:29.923Z,46.10
2022-09-23T07:57:01.988Z,47.70
2022-09-23T07:59:36.246Z,40.50
2022-09-23T08:02:07.970Z,37.70
2022-09-23T08:04:39.712Z,38.20
2022-09-23T08:07:13.409Z,40.30
2022-09-23T08:09:47.037Z,34.90
2022-09-23T08:12:22.360Z,31.00
2022-09-23T08:14:54.112Z,28.80
2022-09-23T08:17:26.004Z,26.10
2022-09-23T08:19:57.610Z,28.70
2022-09-23T08:22:29.912Z,26.90
2022-09-23T08:25:01.579Z,30.20
2022-09-23T08:27:33.290Z,28.40
2022-09-23T08:30:13.794Z,22.60
2022-09-23T08:32:45.498Z,17.40
2022-09-23T08:35:17.666Z,18.80
2022-09-23T08:37:49.413Z,12.30
2022-09-23T08:40:26.742Z,14.00
2022-09-23T08:42:58.409Z,13.80
2022-09-23T08:45:30.578Z,11.20
2022-09-23T08:48:10.739Z,14.40
2022-09-23T08:50:49.749Z,14.20
2022-09-23T08:53:27.448Z,13.90
2022-09-23T08:56:04.106Z,13.20
2022-09-23T08:58:48.166Z,13.70
2022-09-23T09:01:25.838Z,14.60
2022-09-23T09:03:59.490Z,13.90
2022-09-23T09:06:52.937Z,11.80
2022-09-23T09:09:31.583Z,12.10
2022-09-23T09:12:12.861Z,11.00
2022-09-23T09:14:51.988Z,11.50
2022-09-23T09:17:36.630Z,10.70
2022-09-23T09:20:23.306Z,10.80
2022-09-23T09:23:00.719Z,9.40
2022-09-23T09:25:42.580Z,8.30
2022-09-23T09:28:20.097Z,8.10
2022-09-23T09:30:57.511Z,8.00
2022-09-23T09:33:37.584Z,8.40
2022-09-23T09:36:21.854Z,7.70
2022-09-23T09:38:53.481Z,6.50
2022-09-23T09:41:27.488Z,7.70
2022-09-23T09:44:00.916Z,8.40
2022-09-23T09:46:51.099Z,9.90
2022-09-23T09:49:31.023Z,4.90
2022-09-23T09:52:20.770Z,9.10
2022-09-23T09:54:53.676Z,5.00
2022-09-23T09:57:36.053Z,5.50
2022-09-23T10:03:29.055Z,4.30
2022-09-23T10:06:00.922Z,4.60
2022-09-23T10:08:37.429Z,4.10
2022-09-23T10:11:17.678Z,7.50
2022-09-23T10:14:07.135Z,7.00
2022-09-23T10:16:41.010Z,5.50
2022-09-23T10:19:26.135Z,4.40
2022-09-23T10:22:01.749Z,5.30
2022-09-23T10:24:36.443Z,4.60
2022-09-23T10:27:11.448Z,4.80
2022-09-23T10:29:52.095Z,6.70
2022-09-23T10:32:28.001Z,4.30
2022-09-23T10:35:03.007Z,7.00
2022-09-23T10:37:39.785Z,3.00
2022-09-23T10:40:43.784Z,2.90
2022-09-23T10:43:42.131Z,3.60
2022-09-23T10:46:37.887Z,3.70
2022-09-23T10:49:50.063Z,2.80
2022-09-23T10:52:39.371Z,3.10
2022-09-23T10:55:24.569Z,2.40
2022-09-23T10:58:25.664Z,4.40
2022-09-23T11:04:01.452Z,2.80
2022-09-23T11:06:47.793Z,2.20
2022-09-23T11:09:32.748Z,3.10
2022-09-23T11:12:20.147Z,4.00
2022-09-23T11:15:04.873Z,2.30
2022-09-23T11:17:52.585Z,4.50
2022-09-23T11:20:48.211Z,4.80
2022-09-23T11:23:48.041Z,3.10
2022-09-23T11:26:33.293Z,4.60
2022-09-23T11:29:23.781Z,2.80
2022-09-23T11:32:10.306Z,2.60
2022-09-23T11:35:02.654Z,2.90
2022-09-23T11:37:38.106Z,3.50
2022-09-23T11:40:25.492Z,3.20
2022-09-23T11:43:04.211Z,3.20
2022-09-23T11:45:42.006Z,6.60
2022-09-23T11:48:19.182Z,3.00
2022-09-23T11:50:58.987Z,4.90
2022-09-23T11:53:39.085Z,2.00
2022-09-23T11:56:31.879Z,3.50
2022-09-23T11:59:13.304Z,2.90
2022-09-23T12:01:58.207Z,3.60
2022-09-23T12:04:56.855Z,3.00
2022-09-23T12:07:35.927Z,2.40
2022-09-23T12:10:10.325Z,4.40
2022-09-23T12:12:49.313Z,2.00
2022-09-23T12:15:36.080Z,3.20
2022-09-23T12:18:23.555Z,5.80
2022-09-23T12:21:27.125Z,2.30
2022-09-23T12:24:25.463Z,3.10
2022-09-23T12:27:01.500Z,2.60
2022-09-23T12:29:36.260Z,6.20
2022-09-23T12:32:10.082Z,2.40
2022-09-23T12:34:49.199Z,4.50
2022-09-23T12:37:28.960Z,1.60
2022-09-23T12:40:26.489Z,2.60
2022-09-23T12:43:01.225Z,4.00
2022-09-23T12:45:41.547Z,4.30
2022-09-23T12:48:48.989Z,3.90
2022-09-23T12:51:25.215Z,2.60
2022-09-23T12:54:15.331Z,2.80
2022-09-23T12:57:01.808Z,2.60
2022-09-23T12:59:57.557Z,4.00
2022-09-23T13:02:38.702Z,1.50
2022-09-23T13:05:38.809Z,2.40
2022-09-23T13:08:14.712Z,3.70
2022-09-23T13:10:50.023Z,2.40
2022-09-23T13:13:28.326Z,3.20
2022-09-23T13:16:13.841Z,1.90
2022-09-23T13:18:59.738Z,2.70
2022-09-23T13:22:09.274Z,2.60
2022-09-23T13:24:44.403Z,3.20
2022-09-23T13:27:23.093Z,4.70
2022-09-23T13:29:59.935Z,2.20
2022-09-23T13:32:35.459Z,1.80
2022-09-23T13:35:16.799Z,3.50
2022-09-23T13:37:50.111Z,4.10
2022-09-23T13:40:31.808Z,2.30
2022-09-23T13:43:05.956Z,2.60
2022-09-23T13:45:43.304Z,1.60
2022-09-23T13:48:16.610Z,3.40
2022-09-23T13:50:53.606Z,2.30
2022-09-23T13:53:29.012Z,1.60
2022-09-23T13:56:06.464Z,4.40
2022-09-23T13:58:38.405Z,3.60
2022-09-23T14:01:23.364Z,3.00
2022-09-23T14:03:54.961Z,4.60
2022-09-23T14:06:28.330Z,1.40
2022-09-23T14:09:02.498Z,4.30
2022-09-23T14:11:38.953Z,5.60
2022-09-23T14:14:14.991Z,2.60
2022-09-23T14:16:49.782Z,3.60
2022-09-23T14:19:23.563Z,3.80
2022-09-23T14:21:56.439Z,4.60
2022-09-23T14:24:34.189Z,2.70
2022-09-23T14:27:18.988Z,2.50
2022-09-23T14:29:51.181Z,4.90
2022-09-23T14:32:27.682Z,3.00
2022-09-23T14:35:17.828Z,3.50
2022-09-23T14:38:18.937Z,2.80
2022-09-23T14:41:15.572Z,1.90
2022-09-23T14:43:52.862Z,2.70
2022-09-23T14:46:25.889Z,3.30
2022-09-23T14:49:05.881Z,3.10
2022-09-23T14:51:48.170Z,5.90
2022-09-23T14:54:42.580Z,2.10
2022-09-23T14:57:30.560Z,3.70
2022-09-23T15:00:17.512Z,4.30
2022-09-23T15:03:01.975Z,3.70
2022-09-23T15:05:43.188Z,6.90
2022-09-23T15:08:19.222Z,8.50
2022-09-23T15:10:53.032Z,6.90
2022-09-23T15:13:28.451Z,5.30
2022-09-23T15:16:02.030Z,5.00
2022-09-23T15:18:36.987Z,2.60
2022-09-23T15:21:13.942Z,2.90
2022-09-23T15:23:50.022Z,4.10
2022-09-23T15:26:24.669Z,3.20
2022-09-23T15:28:59.934Z,4.30
2022-09-23T15:31:32.467Z,2.70
2022-09-23T15:34:05.660Z,6.10
2022-09-23T15:36:38.399Z,5.80
2022-09-23T15:39:12.142Z,3.30
2022-09-23T15:41:44.072Z,4.30
2022-09-23T15:44:18.104Z,5.70
2022-09-23T15:46:52.055Z,7.50
2022-09-23T15:49:30.394Z,6.70
2022-09-23T15:52:04.408Z,5.20
2022-09-23T15:54:36.287Z,5.10
2022-09-23T15:57:08.075Z,9.00
2022-09-23T15:59:40.196Z,6.80
2022-09-23T16:02:25.845Z,6.90
2022-09-23T16:04:57.490Z,6.60
2022-09-23T16:07:29.175Z,7.20
2022-09-23T16:10:00.869Z,10.20
2022-09-23T16:12:33.311Z,7.90
2022-09-23T16:15:05.065Z,9.10
2022-09-23T16:17:37.823Z,9.90
2022-09-23T16:20:12.403Z,10.90
2022-09-23T16:22:43.989Z,13.20
2022-09-23T16:25:15.716Z,8.80
2022-09-23T16:27:47.245Z,11.40
2022-09-23T16:30:19.127Z,9.00
2022-09-23T16:32:51.790Z,8.00
2022-09-23T16:35:26.970Z,11.70
2022-09-23T16:37:58.583Z,5.80
2022-09-23T16:40:35.790Z,10.80
2022-09-23T16:43:08.440Z,8.30
2022-09-23T16:45:40.105Z,12.20
2022-09-23T16:48:12.643Z,10.10
2022-09-23T16:50:44.966Z,16.50
2022-09-23T16:53:18.215Z,12.30
2022-09-23T16:55:49.871Z,14.60
2022-09-23T16:58:22.499Z,18.50
2022-09-23T17:01:17.494Z,21.50
2022-09-23T17:03:49.764Z,22.30
2022-09-23T17:06:24.080Z,20.00
2022-09-23T17:08:56.341Z,20.90
2022-09-23T17:11:33.430Z,24.80
2022-09-23T17:14:06.394Z,22.40
2022-09-23T17:16:38.127Z,29.20
2022-09-23T17:19:11.905Z,18.80
2022-09-23T17:21:43.540Z,20.70
2022-09-23T17:24:15.320Z,21.60
2022-09-23T17:26:52.606Z,19.10
2022-09-23T17:29:26.973Z,20.00
2022-09-23T17:31:59.085Z,23.20
2022-09-23T17:34:33.572Z,21.90
2022-09-23T17:37:05.300Z,25.90
2022-09-23T17:39:37.043Z,22.30
2022-09-23T17:42:08.726Z,26.20
2022-09-23T17:44:41.279Z,24.80
2022-09-23T17:47:12.973Z,23.50
2022-09-23T17:49:47.272Z,29.60
2022-09-23T17:52:20.055Z,26.40
2022-09-23T17:54:53.908Z,26.50
2022-09-23T17:57:25.766Z,29.30
2022-09-23T17:59:57.634Z,25.70
2022-09-23T18:02:29.380Z,26.90
2022-09-23T18:05:01.262Z,24.20
2022-09-23T18:07:33.037Z,21.30
2022-09-23T18:10:12.497Z,22.30
2022-09-23T18:12:44.214Z,24.80
2022-09-23T18:15:19.963Z,22.60
2022-09-23T18:17:51.946Z,22.30
2022-09-23T18:20:29.022Z,26.50
2022-09-23T18:23:02.338Z,17.90
2022-09-23T18:25:39.661Z,18.50
2022-09-23T18:28:11.764Z,20.40
2022-09-23T18:30:53.859Z,24.80
2022-09-23T18:33:25.968Z,26.00
2022-09-23T18:36:00.866Z,30.30
2022-09-23T18:38:32.887Z,28.50
2022-09-23T18:41:05.975Z,26.90
2022-09-23T18:43:42.227Z,24.40
2022-09-23T18:46:17.624Z,28.10
2022-09-23T18:49:08.783Z,30.50
2022-09-23T18:51:49.193Z,30.40
2022-09-23T18:54:21.815Z,29.70
2022-09-23T18:56:53.714Z,33.20
2022-09-23T18:59:29.886Z,28.20
2022-09-23T19:02:03.043Z,32.80
2022-09-23T19:04:35.310Z,30.60
2022-09-23T19:07:08.733Z,31.20
2022-09-23T19:09:40.474Z,31.40
2022-09-23T19:12:13.128Z,32.00
2022-09-23T19:14:45.057Z,32.80
2022-09-23T19:17:17.647Z,42.60
2022-09-23T19:19:50.258Z,37.90
2022-09-23T19:22:22.834Z,54.30
2022-09-23T19:24:54.552Z,64.30
2022-09-23T19:27:26.285Z,78.40
2022-09-23T19:29:58.384Z,79.00
2022-09-23T19:32:35.695Z,94.30
2022-09-23T19:35:10.402Z,85.50
2022-09-23T19:37:43.238Z,115.20
2022-09-23T19:40:15.599Z,125.60
2022-09-23T19:42:47.723Z,100.50
2022-09-23T19:45:19.585Z,126.40
2022-09-23T19:47:56.832Z,136.30
2022-09-23T19:50:30.908Z,136.70
2022-09-23T19:53:06.203Z,144.70
2022-09-23T19:55:38.813Z,144.30
2022-09-23T19:58:10.642Z,139.40
2022-09-23T20:00:42.784Z,134.00
2022-09-23T20:03:18.477Z,127.60
2022-09-23T20:05:58.096Z,123.30
2022-09-23T20:08:31.894Z,95.30
2022-09-23T20:11:11.662Z,94.40
2022-09-23T20:13:47.451Z,81.30
2022-09-23T20:16:20.864Z,86.80
2022-09-23T20:18:55.682Z,90.30
2022-09-23T20:21:28.338Z,81.90
2022-09-23T20:24:00.470Z,83.90
2022-09-23T20:26:49.691Z,73.50
2022-09-23T20:29:21.309Z,71.00
2022-09-23T20:31:52.973Z,72.60
2022-09-23T20:34:27.498Z,73.00
2022-09-23T20:36:59.351Z,70.30
2022-09-23T20:39:31.113Z,66.70
2022-09-23T20:42:02.812Z,69.30
2022-09-23T20:44:35.309Z,65.20
2022-09-23T20:47:07.093Z,84.40
2022-09-23T20:49:42.595Z,80.90
2022-09-23T20:52:16.619Z,87.30
2022-09-23T20:54:51.703Z,78.60
2022-09-23T20:57:23.362Z,83.10
2022-09-23T20:59:54.961Z,79.40
2022-09-23T21:02:27.371Z,86.90
2022-09-23T21:04:59.041Z,85.40
2022-09-23T21:07:31.044Z,87.10
2022-09-23T21:10:12.301Z,75.30
2022-09-23T21:15:14.703Z,92.80
2022-09-23T21:17:46.454Z,82.20
2022-09-23T21:20:24.175Z,98.30
2022-09-23T21:22:56.438Z,118.20
2022-09-23T21:25:29.183Z,124.40
2022-09-23T21:28:02.115Z,120.60
2022-09-23T21:30:36.087Z,122.90
2022-09-23T21:33:07.643Z,121.70
2022-09-23T21:35:39.369Z,122.90
2022-09-23T21:38:10.968Z,120.60
2022-09-23T21:40:58.616Z,122.00
2022-09-23T21:43:33.354Z,122.00
2022-09-23T21:46:07.512Z,114.40
2022-09-23T21:48:41.241Z,133.50
2022-09-23T21:51:16.891Z,124.60
2022-09-23T21:53:49.104Z,120.40
2022-09-23T21:56:22.568Z,131.20
2022-09-23T21:58:56.363Z,117.40
2022-09-23T22:01:31.642Z,112.90
2022-09-23T22:04:08.529Z,114.00
2022-09-23T22:06:40.869Z,114.10
2022-09-23T22:09:15.815Z,105.70
2022-09-23T22:12:10.305Z,105.60
2022-09-23T22:14:43.409Z,96.10
2022-09-23T22:17:16.624Z,103.40
2022-09-23T22:19:48.851Z,97.80
2022-09-23T22:22:22.602Z,93.50
2022-09-23T22:24:54.201Z,92.20
2022-09-23T22:27:27.459Z,97.90
2022-09-23T22:30:16.701Z,91.70
2022-09-23T22:32:54.887Z,90.20
2022-09-23T22:35:26.772Z,92.90
2022-09-23T22:38:00.600Z,92.40
2022-09-23T22:40:32.538Z,93.20
2022-09-23T22:43:05.895Z,87.70
2022-09-23T22:45:37.750Z,88.20
2022-09-23T22:48:09.624Z,88.90
2022-09-23T22:50:42.674Z,81.60
2022-09-23T22:53:15.476Z,84.90
2022-09-23T22:55:57.548Z,89.70
2022-09-23T22:58:32.722Z,87.60
2022-09-23T23:01:05.520Z,86.90
2022-09-23T23:03:38.165Z,89.50
2022-09-23T23:06:11.193Z,88.90
2022-09-23T23:08:43.551Z,81.60
2022-09-23T23:11:15.149Z,77.30
2022-09-23T23:13:47.605Z,77.60
2022-09-23T23:16:19.271Z,79.60
2022-09-23T23:18:50.996Z,76.50
2022-09-23T23:21:23.658Z,78.70
2022-09-23T23:23:55.769Z,85.40
2022-09-23T23:26:29.098Z,76.00
2022-09-23T23:29:01.946Z,71.80
2022-09-23T23:31:33.687Z,80.60
2022-09-23T23:34:06.192Z,78.90
2022-09-23T23:36:37.788Z,73.50
2022-09-23T23:39:09.718Z,65.60
2022-09-23T23:41:41.652Z,59.90
2022-09-23T23:44:15.658Z,61.00
2022-09-23T23:46:47.268Z,77.80
2022-09-23T23:49:20.452Z,62.50
2022-09-23T23:51:53.099Z,57.20
2022-09-23T23:54:25.584Z,62.20
2022-09-23T23:56:57.202Z,60.40
2022-09-23T23:59:32.115Z,62.40
